WJA1742 CYEG-MMPR
Flight info
| Callsign | WJA1742 |
|---|---|
| Flight time | N/A |
| Altitude | 35000 |
| Route | CYEG OMVOL MIPOT EBGAL TOVUM KEETA PROXI CORKR PXR ALGUN NABAS CUL XUBUD MUVBA PR407 PR405 PR404 MMPR |
| Aircraft | B737/M-SDE2E3FGHIRWY/LB1 |
Departure
| Time | 2026-05-08 00:41 |
|---|---|
| Airport | Edmonton International Airport (CYEG) |
Arrival
| Time | N/A |
|---|---|
| Airport | Puerto Vallarta International Airport (MMPR) |
| Time | Latitude | Longitude | Altitude | Speed | Heading |
|---|---|---|---|---|---|
| 2026-05-08 00:06 | 53.30394 | -113.58107 | 2341 ft | 0 kts | 45° |
| 2026-05-08 00:27 | 53.30385 | -113.58123 | 2383 ft | 2 kts | 45° |
| 2026-05-08 00:27 | 53.30374 | -113.58142 | 2383 ft | 2 kts | 45° |
| 2026-05-08 00:27 | 53.30362 | -113.58162 | 2383 ft | 2 kts | 45° |
| 2026-05-08 00:27 | 53.30357 | -113.58170 | 2388 ft | 0 kts | 45° |
| 2026-05-08 00:32 | 53.30351 | -113.58162 | 2387 ft | 1 kts | 179° |
| 2026-05-08 00:32 | 53.30328 | -113.58190 | 2383 ft | 1 kts | 208° |
| 2026-05-08 00:33 | 53.30303 | -113.58179 | 2386 ft | 10 kts | 149° |
| 2026-05-08 00:33 | 53.30242 | -113.58080 | 2383 ft | 12 kts | 135° |
| 2026-05-08 00:33 | 53.30183 | -113.57981 | 2383 ft | 12 kts | 135° |
| 2026-05-08 00:33 | 53.30125 | -113.57884 | 2387 ft | 12 kts | 135° |
| 2026-05-08 00:34 | 53.30073 | -113.57799 | 2386 ft | 10 kts | 140° |
| 2026-05-08 00:34 | 53.30016 | -113.57834 | 2383 ft | 10 kts | 225° |
| 2026-05-08 00:34 | 53.29969 | -113.57913 | 2383 ft | 9 kts | 225° |
| 2026-05-08 00:34 | 53.29915 | -113.57904 | 2385 ft | 9 kts | 136° |
| 2026-05-08 00:35 | 53.29871 | -113.57829 | 2385 ft | 9 kts | 134° |
| 2026-05-08 00:35 | 53.29828 | -113.57757 | 2384 ft | 9 kts | 134° |
| 2026-05-08 00:35 | 53.29786 | -113.57687 | 2386 ft | 8 kts | 135° |
| 2026-05-08 00:35 | 53.29744 | -113.57619 | 2386 ft | 8 kts | 136° |
| 2026-05-08 00:36 | 53.29705 | -113.57554 | 2383 ft | 8 kts | 134° |
| 2026-05-08 00:36 | 53.29660 | -113.57477 | 2383 ft | 12 kts | 135° |
| 2026-05-08 00:36 | 53.29583 | -113.57349 | 2383 ft | 19 kts | 135° |
| 2026-05-08 00:36 | 53.29472 | -113.57163 | 2387 ft | 25 kts | 135° |
| 2026-05-08 00:37 | 53.29357 | -113.56971 | 2386 ft | 19 kts | 135° |
| 2026-05-08 00:37 | 53.29284 | -113.56849 | 2386 ft | 14 kts | 135° |
| 2026-05-08 00:37 | 53.29216 | -113.56735 | 2383 ft | 13 kts | 135° |
| 2026-05-08 00:38 | 53.29089 | -113.56522 | 2387 ft | 13 kts | 135° |
| 2026-05-08 00:38 | 53.29027 | -113.56420 | 2385 ft | 12 kts | 135° |
| 2026-05-08 00:38 | 53.28968 | -113.56320 | 2383 ft | 12 kts | 135° |
| 2026-05-08 00:38 | 53.28902 | -113.56243 | 2383 ft | 12 kts | 170° |
| 2026-05-08 00:39 | 53.28821 | -113.56241 | 2386 ft | 11 kts | 180° |
| 2026-05-08 00:39 | 53.28765 | -113.56247 | 2385 ft | 0 kts | 191° |
| 2026-05-08 00:39 | 53.28723 | -113.56296 | 2386 ft | 17 kts | 232° |
| 2026-05-08 00:40 | 53.28765 | -113.56458 | 2386 ft | 17 kts | 315° |
| 2026-05-08 00:40 | 53.28782 | -113.56487 | 2384 ft | 0 kts | 315° |
| 2026-05-08 00:40 | 53.28985 | -113.56826 | 2382 ft | 83 kts | 315° |
| 2026-05-08 00:40 | 53.29569 | -113.57804 | 2381 ft | 153 kts | 315° |
| 2026-05-08 00:41 | 53.30453 | -113.59274 | 2734 ft | 185 kts | 317° |
| 2026-05-08 00:41 | 53.31392 | -113.60874 | 3484 ft | 203 kts | 316° |
| 2026-05-08 00:41 | 53.32403 | -113.62584 | 4068 ft | 215 kts | 317° |
| 2026-05-08 00:41 | 53.33493 | -113.64395 | 4812 ft | 225 kts | 317° |
| 2026-05-08 00:42 | 53.34619 | -113.66261 | 5545 ft | 234 kts | 316° |
| 2026-05-08 00:42 | 53.35749 | -113.68278 | 6364 ft | 242 kts | 304° |
| 2026-05-08 00:42 | 53.36355 | -113.70919 | 7125 ft | 251 kts | 280° |
| 2026-05-08 00:42 | 53.36287 | -113.73853 | 7970 ft | 258 kts | 258° |
| 2026-05-08 00:43 | 53.35507 | -113.76583 | 8819 ft | 265 kts | 234° |
| 2026-05-08 00:43 | 53.34075 | -113.78552 | 9694 ft | 273 kts | 207° |
| 2026-05-08 00:43 | 53.32216 | -113.79295 | 10505 ft | 279 kts | 184° |
| 2026-05-08 00:43 | 53.30273 | -113.79136 | 11327 ft | 280 kts | 178° |
| 2026-05-08 00:44 | 53.28330 | -113.78800 | 12071 ft | 284 kts | 177° |
| 2026-05-08 00:44 | 53.26332 | -113.78423 | 12453 ft | 301 kts | 177° |
| 2026-05-08 00:44 | 53.24166 | -113.78017 | 12893 ft | 316 kts | 177° |
| 2026-05-08 00:44 | 53.22129 | -113.77644 | 13290 ft | 330 kts | 177° |
| 2026-05-08 00:45 | 53.19792 | -113.77226 | 13706 ft | 345 kts | 177° |
| 2026-05-08 00:45 | 53.17352 | -113.76797 | 14081 ft | 359 kts | 177° |
| 2026-05-08 00:45 | 53.15594 | -113.76492 | 14355 ft | 369 kts | 177° |
| 2026-05-08 00:45 | 53.12989 | -113.76044 | 14737 ft | 382 kts | 177° |
| 2026-05-08 00:46 | 53.10320 | -113.75589 | 15121 ft | 394 kts | 177° |
| 2026-05-08 00:46 | 53.07547 | -113.75119 | 15508 ft | 405 kts | 177° |
| 2026-05-08 00:46 | 53.04692 | -113.74635 | 15904 ft | 415 kts | 177° |
| 2026-05-08 00:46 | 53.01798 | -113.74147 | 16303 ft | 424 kts | 177° |
| 2026-05-08 00:47 | 52.98841 | -113.73651 | 16838 ft | 429 kts | 177° |
| 2026-05-08 00:47 | 52.95860 | -113.73151 | 17366 ft | 433 kts | 177° |
| 2026-05-08 00:47 | 52.92845 | -113.72647 | 17906 ft | 437 kts | 177° |
| 2026-05-08 00:47 | 52.89786 | -113.72136 | 18419 ft | 441 kts | 177° |
| 2026-05-08 00:48 | 52.86730 | -113.71627 | 18906 ft | 444 kts | 177° |
| 2026-05-08 00:48 | 52.83696 | -113.71122 | 19384 ft | 446 kts | 177° |
| 2026-05-08 00:48 | 52.80548 | -113.70599 | 19887 ft | 449 kts | 177° |
| 2026-05-08 00:48 | 52.77436 | -113.70083 | 20384 ft | 451 kts | 177° |
| 2026-05-08 00:49 | 52.74295 | -113.69562 | 20901 ft | 453 kts | 177° |
| 2026-05-08 00:49 | 52.71146 | -113.69042 | 21417 ft | 455 kts | 177° |
| 2026-05-08 00:49 | 52.68033 | -113.68527 | 21929 ft | 456 kts | 177° |
| 2026-05-08 00:49 | 52.64879 | -113.68007 | 22461 ft | 457 kts | 177° |
| 2026-05-08 00:50 | 52.61668 | -113.67478 | 23019 ft | 458 kts | 177° |
| 2026-05-08 00:50 | 52.58548 | -113.66964 | 23544 ft | 458 kts | 177° |
| 2026-05-08 00:50 | 52.55352 | -113.66439 | 24014 ft | 459 kts | 177° |
| 2026-05-08 00:50 | 52.52176 | -113.65918 | 24477 ft | 460 kts | 177° |
| 2026-05-08 00:51 | 52.49002 | -113.65398 | 24952 ft | 460 kts | 178° |
| 2026-05-08 00:51 | 52.45818 | -113.64877 | 25436 ft | 460 kts | 178° |
| 2026-05-08 00:51 | 52.42615 | -113.64354 | 25927 ft | 460 kts | 178° |
| 2026-05-08 00:51 | 52.39444 | -113.63836 | 26423 ft | 460 kts | 178° |
| 2026-05-08 00:52 | 52.36241 | -113.63315 | 26930 ft | 460 kts | 178° |
| 2026-05-08 00:52 | 52.33056 | -113.62796 | 27452 ft | 459 kts | 178° |
| 2026-05-08 00:52 | 52.29867 | -113.62278 | 27971 ft | 459 kts | 178° |
| 2026-05-08 00:52 | 52.26696 | -113.61764 | 28513 ft | 458 kts | 178° |
| 2026-05-08 00:53 | 52.23540 | -113.61253 | 29043 ft | 457 kts | 178° |
| 2026-05-08 00:53 | 52.20414 | -113.60747 | 29597 ft | 455 kts | 178° |
| 2026-05-08 00:53 | 52.17236 | -113.60233 | 30126 ft | 454 kts | 179° |
| 2026-05-08 00:53 | 52.14128 | -113.59732 | 30592 ft | 453 kts | 179° |
| 2026-05-08 00:54 | 52.10988 | -113.59226 | 31065 ft | 451 kts | 179° |
| 2026-05-08 00:54 | 52.07872 | -113.58724 | 31542 ft | 449 kts | 180° |
| 2026-05-08 00:54 | 52.04777 | -113.58226 | 32026 ft | 447 kts | 180° |
| 2026-05-08 00:54 | 52.01705 | -113.57732 | 32511 ft | 444 kts | 180° |
| 2026-05-08 00:55 | 51.98636 | -113.57239 | 33012 ft | 440 kts | 181° |
| 2026-05-08 00:55 | 51.95597 | -113.56750 | 33508 ft | 435 kts | 181° |
| 2026-05-08 00:55 | 51.92591 | -113.56271 | 33775 ft | 438 kts | 182° |
| 2026-05-08 00:55 | 51.89502 | -113.55791 | 33557 ft | 453 kts | 181° |
| 2026-05-08 00:56 | 51.86303 | -113.55299 | 33457 ft | 465 kts | 181° |
| 2026-05-08 00:56 | 51.80899 | -113.54450 | 33611 ft | 476 kts | 181° |
| 2026-05-08 00:57 | 51.73098 | -113.53209 | 33781 ft | 491 kts | 181° |
| 2026-05-08 00:57 | 51.69667 | -113.52662 | 33948 ft | 495 kts | 181° |
| 2026-05-08 00:57 | 51.66243 | -113.52118 | 34081 ft | 499 kts | 181° |
| 2026-05-08 00:58 | 51.60397 | -113.51192 | 34288 ft | 505 kts | 181° |
| 2026-05-08 00:58 | 51.56904 | -113.50642 | 34430 ft | 508 kts | 181° |
| 2026-05-08 00:58 | 51.53411 | -113.50093 | 34566 ft | 512 kts | 180° |
| 2026-05-08 00:58 | 51.49842 | -113.49534 | 34697 ft | 515 kts | 180° |
| 2026-05-08 00:59 | 51.46277 | -113.48976 | 34830 ft | 517 kts | 180° |
| 2026-05-08 00:59 | 51.42670 | -113.48412 | 34961 ft | 520 kts | 180° |
| 2026-05-08 00:59 | 51.39088 | -113.47854 | 35036 ft | 524 kts | 180° |
| 2026-05-08 01:00 | 51.31747 | -113.46715 | 35041 ft | 535 kts | 180° |
| 2026-05-08 01:00 | 51.24203 | -113.45547 | 35034 ft | 544 kts | 180° |
| 2026-05-08 01:01 | 51.16671 | -113.44380 | 35013 ft | 551 kts | 180° |
| 2026-05-08 01:01 | 51.09015 | -113.43196 | 35025 ft | 555 kts | 180° |
| 2026-05-08 01:02 | 51.01503 | -113.42038 | 35016 ft | 553 kts | 180° |
| 2026-05-08 01:02 | 50.93835 | -113.40863 | 35023 ft | 553 kts | 180° |
| 2026-05-08 01:03 | 50.86186 | -113.39698 | 35032 ft | 554 kts | 180° |
| 2026-05-08 01:03 | 50.78465 | -113.38523 | 35029 ft | 555 kts | 180° |
| 2026-05-08 01:04 | 50.70817 | -113.37355 | 35033 ft | 556 kts | 180° |
| 2026-05-08 01:04 | 50.63110 | -113.35422 | 35051 ft | 562 kts | 173° |
| 2026-05-08 01:05 | 50.55481 | -113.32426 | 35030 ft | 566 kts | 168° |
| 2026-05-08 01:05 | 50.47897 | -113.28899 | 35032 ft | 566 kts | 167° |
| 2026-05-08 01:06 | 50.40358 | -113.25631 | 35047 ft | 565 kts | 169° |
| 2026-05-08 01:06 | 50.32747 | -113.22638 | 35024 ft | 564 kts | 171° |
| 2026-05-08 01:07 | 50.25098 | -113.19730 | 35048 ft | 564 kts | 171° |
| 2026-05-08 01:07 | 50.17522 | -113.16833 | 35042 ft | 564 kts | 170° |
| 2026-05-08 01:08 | 50.09863 | -113.13883 | 35036 ft | 564 kts | 170° |
| 2026-05-08 01:08 | 50.02288 | -113.10965 | 35043 ft | 564 kts | 170° |
| 2026-05-08 01:09 | 49.94670 | -113.08044 | 35037 ft | 564 kts | 170° |
| 2026-05-08 01:09 | 49.87043 | -113.05133 | 35041 ft | 564 kts | 170° |
| 2026-05-08 01:10 | 49.79436 | -113.02239 | 35033 ft | 563 kts | 170° |
| 2026-05-08 01:10 | 49.71786 | -112.99337 | 35040 ft | 563 kts | 170° |
| 2026-05-08 01:11 | 49.64240 | -112.96484 | 35035 ft | 563 kts | 170° |
| 2026-05-08 01:11 | 49.56638 | -112.93620 | 35028 ft | 562 kts | 171° |
| 2026-05-08 01:12 | 49.49015 | -112.90756 | 35035 ft | 562 kts | 170° |
| 2026-05-08 01:12 | 49.41411 | -112.87909 | 35027 ft | 563 kts | 171° |
| 2026-05-08 01:13 | 49.33804 | -112.85068 | 35044 ft | 562 kts | 171° |
| 2026-05-08 01:13 | 49.26247 | -112.82283 | 35023 ft | 561 kts | 172° |
| 2026-05-08 01:14 | 49.18589 | -112.81123 | 35043 ft | 542 kts | 191° |
| 2026-05-08 01:14 | 49.11071 | -112.82149 | 35028 ft | 543 kts | 193° |
| 2026-05-08 01:15 | 49.03490 | -112.82718 | 35019 ft | 546 kts | 187° |
| 2026-05-08 01:15 | 48.95933 | -112.82691 | 35035 ft | 546 kts | 187° |
| 2026-05-08 01:16 | 48.88322 | -112.82752 | 35039 ft | 545 kts | 188° |
| 2026-05-08 01:16 | 48.80737 | -112.82985 | 35037 ft | 544 kts | 188° |
| 2026-05-08 01:17 | 48.73166 | -112.83281 | 35053 ft | 543 kts | 188° |
| 2026-05-08 01:17 | 48.65609 | -112.83570 | 35051 ft | 543 kts | 188° |
| 2026-05-08 01:18 | 48.58074 | -112.83841 | 35057 ft | 544 kts | 188° |
| 2026-05-08 01:18 | 48.50446 | -112.84108 | 35063 ft | 544 kts | 188° |
| 2026-05-08 01:19 | 48.42939 | -112.84370 | 35055 ft | 544 kts | 188° |
| 2026-05-08 01:19 | 48.35345 | -112.84635 | 35046 ft | 545 kts | 188° |
| 2026-05-08 01:20 | 48.27794 | -112.84899 | 35065 ft | 545 kts | 188° |
| 2026-05-08 01:20 | 48.20249 | -112.85162 | 35067 ft | 545 kts | 188° |
| 2026-05-08 01:21 | 48.12654 | -112.85425 | 35093 ft | 545 kts | 188° |
| 2026-05-08 01:21 | 48.05059 | -112.85685 | 35063 ft | 543 kts | 188° |
| 2026-05-08 01:22 | 47.97505 | -112.85946 | 35106 ft | 544 kts | 188° |
| 2026-05-08 01:22 | 47.90032 | -112.86207 | 35119 ft | 544 kts | 188° |
| 2026-05-08 01:23 | 47.82786 | -112.86456 | 35083 ft | 545 kts | 188° |
| 2026-05-08 01:23 | 47.75190 | -112.86715 | 35092 ft | 543 kts | 188° |
| 2026-05-08 01:24 | 47.67619 | -112.86971 | 35101 ft | 543 kts | 188° |
| 2026-05-08 01:24 | 47.60033 | -112.87229 | 35090 ft | 542 kts | 188° |
| 2026-05-08 01:25 | 47.52554 | -112.87483 | 35098 ft | 542 kts | 188° |
| 2026-05-08 01:25 | 47.44991 | -112.87739 | 35079 ft | 541 kts | 188° |
| 2026-05-08 01:26 | 47.37434 | -112.87995 | 35095 ft | 541 kts | 188° |
| 2026-05-08 01:26 | 47.29893 | -112.88007 | 35081 ft | 544 kts | 185° |
| 2026-05-08 01:27 | 47.22358 | -112.87429 | 35085 ft | 546 kts | 182° |
| 2026-05-08 01:27 | 47.14762 | -112.86727 | 35084 ft | 546 kts | 183° |
| 2026-05-08 01:28 | 47.07178 | -112.86109 | 35082 ft | 543 kts | 184° |
| 2026-05-08 01:28 | 46.99627 | -112.85565 | 35071 ft | 543 kts | 184° |
| 2026-05-08 01:29 | 46.92202 | -112.85049 | 35084 ft | 543 kts | 184° |
| 2026-05-08 01:29 | 46.84854 | -112.84533 | 35091 ft | 543 kts | 184° |
| 2026-05-08 01:30 | 46.77760 | -112.84029 | 35067 ft | 544 kts | 184° |
| 2026-05-08 01:30 | 46.70374 | -112.83503 | 35050 ft | 543 kts | 184° |
| 2026-05-08 01:31 | 46.63036 | -112.82981 | 35079 ft | 541 kts | 184° |
| 2026-05-08 01:31 | 46.55658 | -112.82462 | 35064 ft | 543 kts | 184° |
| 2026-05-08 01:32 | 46.48117 | -112.81932 | 35066 ft | 542 kts | 183° |
| 2026-05-08 01:32 | 46.40629 | -112.81404 | 35066 ft | 542 kts | 183° |
| 2026-05-08 01:33 | 46.33338 | -112.80894 | 35072 ft | 542 kts | 183° |
| 2026-05-08 01:33 | 46.25911 | -112.80376 | 35081 ft | 542 kts | 183° |
| 2026-05-08 01:34 | 46.18477 | -112.79859 | 35105 ft | 542 kts | 183° |
| 2026-05-08 01:34 | 46.10914 | -112.79334 | 35111 ft | 542 kts | 183° |
| 2026-05-08 01:35 | 46.03700 | -112.78834 | 35127 ft | 542 kts | 183° |
| 2026-05-08 01:35 | 45.96118 | -112.78310 | 35130 ft | 542 kts | 183° |
| 2026-05-08 01:36 | 45.88861 | -112.77809 | 35112 ft | 541 kts | 183° |
| 2026-05-08 01:36 | 45.81310 | -112.77289 | 35099 ft | 539 kts | 183° |
| 2026-05-08 01:37 | 45.75094 | -112.76863 | 35092 ft | 538 kts | 183° |
| 2026-05-08 01:37 | 45.67182 | -112.76327 | 35072 ft | 541 kts | 183° |